Time;durP1;ratioP1;P1;durP2;ratioP2;P2;SDS_P1;SDS_P2;PMS_P1;PMS_P2;Temp;Humidity;BMP_temperature;BMP_pressure;BME280_temperature;BME280_humidity;BME280_pressure;Samples;Min_cycle;Max_cycle;Signal;HPM_P1;HPM_P2
2022/11/18 00:01:46;;;;;;;12.23;5.53;;;8.30;99.90;;;;;;4341930;28;10000915;-72
2022/11/18 00:04:12;;;;;;;11.45;5.38;;;8.30;99.90;;;;;;5032992;28;20036;-72
2022/11/18 00:06:37;;;;;;;10.82;5.55;;;8.30;99.90;;;;;;5025054;28;20703;-72
2022/11/18 00:09:03;;;;;;;7.63;5.63;;;8.30;99.90;;;;;;5024152;28;20037;-72
2022/11/18 00:14:22;;;;;;;9.52;5.68;;;8.30;99.90;;;;;;5032649;28;20039;-72
2022/11/18 00:16:58;;;;;;;8.38;5.50;;;8.30;99.90;;;;;;5030957;28;20044;-71
2022/11/18 00:19:27;;;;;;;9.85;5.43;;;8.30;99.90;;;;;;5030225;28;20037;-71
2022/11/18 00:21:53;;;;;;;10.57;6.00;;;8.30;99.90;;;;;;5041002;28;20021;-71
2022/11/18 00:24:19;;;;;;;8.30;5.25;;;8.30;99.90;;;;;;5033212;28;20497;-72
2022/11/18 00:26:44;;;;;;;8.48;5.15;;;8.30;99.90;;;;;;5025305;28;20739;-72
2022/11/18 00:29:11;;;;;;;12.65;5.85;;;8.30;99.90;;;;;;5025468;28;20144;-71
2022/11/18 00:31:37;;;;;;;9.93;5.70;;;8.30;99.90;;;;;;5021476;28;20808;-72
2022/11/18 00:34:03;;;;;;;10.13;5.47;;;8.30;99.90;;;;;;5010983;28;20042;-72
2022/11/18 00:36:29;;;;;;;7.70;4.97;;;8.30;99.90;;;;;;4990648;28;20501;-72
2022/11/18 00:38:54;;;;;;;9.18;5.53;;;8.30;99.90;;;;;;4993228;28;20026;-72
2022/11/18 00:41:20;;;;;;;10.38;4.82;;;8.30;99.90;;;;;;4987970;28;20037;-72
2022/11/18 00:43:46;;;;;;;7.22;4.75;;;8.30;99.90;;;;;;4987227;28;20410;-72
2022/11/18 00:46:12;;;;;;;9.60;5.00;;;8.40;99.90;;;;;;4988735;28;20037;-72
2022/11/18 00:48:39;;;;;;;5.97;4.35;;;8.40;99.90;;;;;;4997173;28;20033;-72
2022/11/18 00:51:16;;;;;;;7.78;4.30;;;8.40;99.90;;;;;;5002550;28;20030;-71
2022/11/18 00:53:41;;;;;;;9.27;5.00;;;8.50;99.90;;;;;;4997559;28;20033;-72
2022/11/18 00:56:08;;;;;;;8.50;4.68;;;8.40;99.90;;;;;;4987788;28;20054;-71
2022/11/18 00:58:34;;;;;;;7.15;4.68;;;8.40;99.90;;;;;;4997276;28;20116;-71
2022/11/18 01:00:59;;;;;;;8.50;4.78;;;8.40;99.90;;;;;;4994926;28;20022;-71
2022/11/18 01:03:26;;;;;;;8.50;4.60;;;8.40;99.90;;;;;;4986659;28;20041;-72
2022/11/18 01:05:52;;;;;;;8.55;5.07;;;8.40;99.90;;;;;;4989794;28;20149;-72
2022/11/18 01:08:18;;;;;;;7.60;4.55;;;8.40;99.90;;;;;;4999596;28;20072;-71
2022/11/18 01:10:45;;;;;;;5.30;4.20;;;8.50;99.90;;;;;;4991239;28;20029;-71
2022/11/18 01:13:19;;;;;;;6.15;3.95;;;8.40;99.90;;;;;;4997044;28;20025;-72
2022/11/18 01:15:47;;;;;;;6.35;4.45;;;8.40;99.90;;;;;;5009200;28;20029;-72
2022/11/18 01:18:13;;;;;;;5.15;3.63;;;8.40;99.90;;;;;;5010796;28;20051;-72
2022/11/18 01:20:38;;;;;;;6.50;4.20;;;8.30;99.90;;;;;;5001577;28;20018;-72
2022/11/18 01:23:04;;;;;;;4.20;3.13;;;8.30;99.90;;;;;;4999749;28;20428;-72
2022/11/18 01:25:30;;;;;;;4.85;3.72;;;8.30;99.90;;;;;;4999516;28;20029;-72
2022/11/18 01:27:56;;;;;;;5.32;3.58;;;8.20;99.90;;;;;;4999489;28;20036;-71
2022/11/18 01:30:22;;;;;;;5.57;3.70;;;8.20;99.90;;;;;;4991580;28;20038;-71
2022/11/18 01:32:48;;;;;;;5.43;3.75;;;8.20;99.90;;;;;;4993084;28;20123;-71
2022/11/18 01:35:14;;;;;;;6.65;4.05;;;8.20;99.90;;;;;;4995731;28;20577;-72
2022/11/18 01:37:40;;;;;;;7.13;4.10;;;8.20;99.90;;;;;;4991778;28;20449;-71
2022/11/18 01:40:07;;;;;;;7.60;4.00;;;8.20;99.90;;;;;;4988398;28;20037;-71
2022/11/18 01:42:33;;;;;;;6.82;3.80;;;8.20;99.90;;;;;;4993143;28;20035;-71
2022/11/18 01:45:09;;;;;;;8.25;3.80;;;8.20;99.90;;;;;;4993416;28;20079;-71
2022/11/18 01:47:41;;;;;;;9.93;4.00;;;8.20;99.90;;;;;;4995418;28;20960;-71
2022/11/18 01:50:07;;;;;;;7.53;4.18;;;8.20;99.90;;;;;;4998125;28;20497;-71
2022/11/18 01:52:34;;;;;;;8.02;4.50;;;8.20;99.90;;;;;;5005436;28;20029;-71
2022/11/18 01:55:09;;;;;;;6.75;4.22;;;8.20;99.90;;;;;;4995466;28;20555;-71
2022/11/18 01:57:35;;;;;;;6.13;3.95;;;8.20;99.90;;;;;;4999904;28;20108;-71
2022/11/18 02:00:04;;;;;;;6.25;4.20;;;8.30;99.90;;;;;;4997168;28;20498;-71
2022/11/18 02:02:32;;;;;;;5.90;4.05;;;8.20;99.90;;;;;;4998486;28;20030;-71
2022/11/18 02:04:59;;;;;;;4.93;4.00;;;8.20;99.90;;;;;;5006571;28;20030;-71
2022/11/18 02:07:25;;;;;;;7.07;4.47;;;8.20;99.90;;;;;;5011249;28;20026;-72
2022/11/18 02:09:52;;;;;;;5.15;4.35;;;8.20;99.90;;;;;;5003150;28;20021;-71
2022/11/18 02:12:18;;;;;;;6.57;4.38;;;8.20;99.90;;;;;;5010799;28;20025;-71
2022/11/18 02:14:46;;;;;;;6.32;4.20;;;8.20;99.90;;;;;;5019736;28;20025;-72
2022/11/18 02:17:31;;;;;;;6.22;4.15;;;8.20;99.90;;;;;;5007046;28;20025;-72
2022/11/18 02:20:12;;;;;;;6.38;4.82;;;8.20;99.90;;;;;;5005367;28;20037;-71
2022/11/18 02:22:56;;;;;;;7.75;4.72;;;8.20;99.90;;;;;;5010036;28;20533;-71
2022/11/18 02:25:42;;;;;;;5.18;3.92;;;8.20;99.90;;;;;;5010646;28;20052;-72
2022/11/18 02:28:29;;;;;;;9.35;4.80;;;8.20;99.90;;;;;;5007913;28;20798;-72
2022/11/18 02:31:05;;;;;;;7.45;4.53;;;8.20;99.90;;;;;;5001728;28;20045;-72
2022/11/18 02:34:01;;;;;;;7.05;4.53;;;8.20;99.90;;;;;;5009822;28;20597;-72
2022/11/18 02:36:49;;;;;;;6.57;4.28;;;8.30;99.90;;;;;;5008478;28;20037;-72
2022/11/18 02:39:32;;;;;;;6.57;4.75;;;8.30;99.90;;;;;;5006377;28;20045;-72
2022/11/18 02:42:03;;;;;;;10.63;4.90;;;8.30;99.90;;;;;;5007906;28;20952;-72
2022/11/18 02:44:29;;;;;;;6.57;4.72;;;8.20;99.90;;;;;;5010521;28;20045;-72
2022/11/18 02:47:00;;;;;;;6.25;4.22;;;8.20;99.90;;;;;;5005294;28;20030;-71
2022/11/18 02:49:34;;;;;;;7.07;4.57;;;8.20;99.90;;;;;;5015601;28;20185;-71
2022/11/18 02:52:01;;;;;;;7.03;5.30;;;8.20;99.90;;;;;;5010771;28;20033;-71
2022/11/18 02:54:28;;;;;;;6.97;4.90;;;8.20;99.90;;;;;;5009858;28;20487;-71
2022/11/18 02:56:54;;;;;;;7.97;4.93;;;8.30;99.90;;;;;;5010192;28;20033;-71
2022/11/18 02:59:20;;;;;;;7.45;5.00;;;8.30;99.90;;;;;;5003254;28;20101;-71
2022/11/18 03:01:46;;;;;;;8.15;5.18;;;8.30;99.90;;;;;;5001537;28;20038;-71
2022/11/18 03:04:15;;;;;;;9.93;5.50;;;8.30;99.90;;;;;;5010517;28;20025;-71
2022/11/18 03:06:47;;;;;;;8.02;5.40;;;8.40;99.90;;;;;;5013726;28;20022;-71
2022/11/18 03:09:25;;;;;;;7.60;5.68;;;8.40;99.90;;;;;;5006079;28;20103;-71
2022/11/18 03:12:07;;;;;;;8.63;5.70;;;8.30;99.90;;;;;;5006382;28;20069;-71
2022/11/18 03:14:45;;;;;;;8.48;5.38;;;8.30;99.90;;;;;;5011475;28;20036;-71
2022/11/18 03:17:17;;;;;;;7.75;6.32;;;8.30;99.90;;;;;;5015246;28;20516;-71
2022/11/18 03:20:09;;;;;;;9.53;6.07;;;8.30;99.90;;;;;;5010106;28;20606;-71
2022/11/18 03:22:37;;;;;;;8.48;5.93;;;8.20;99.90;;;;;;5007816;28;20037;-71
2022/11/18 03:25:11;;;;;;;7.00;5.68;;;8.20;99.90;;;;;;5006376;28;20052;-70
2022/11/18 03:27:45;;;;;;;;;;;8.20;99.90;;;;;;5007888;28;20029;-70
2022/11/18 03:30:17;;;;;;;8.25;5.93;;;8.10;99.90;;;;;;5007607;28;19937;-70
2022/11/18 03:32:50;;;;;;;9.98;6.95;;;8.10;99.90;;;;;;5004445;28;20076;-71
2022/11/18 03:35:23;;;;;;;10.77;7.50;;;8.10;99.90;;;;;;5004463;28;20611;-71
2022/11/18 03:37:53;;;;;;;11.70;7.68;;;8.10;99.90;;;;;;5009446;28;20060;-72
2022/11/18 03:40:28;;;;;;;11.35;7.47;;;8.20;99.90;;;;;;5008155;28;20030;-71
2022/11/18 03:43:01;;;;;;;10.75;7.80;;;8.10;99.90;;;;;;5014474;28;20033;-71
2022/11/18 03:45:41;;;;;;;12.13;8.45;;;8.20;99.90;;;;;;5002061;28;20525;-71
2022/11/18 03:48:13;;;;;;;10.57;7.70;;;8.20;99.90;;;;;;5003020;28;20504;-71
2022/11/18 03:50:49;;;;;;;9.13;7.25;;;8.20;99.90;;;;;;5006346;28;20026;-71
2022/11/18 03:53:18;;;;;;;10.85;6.97;;;8.20;99.90;;;;;;5013366;28;20029;-71
2022/11/18 03:55:49;;;;;;;9.38;7.53;;;8.10;99.90;;;;;;5011596;28;20097;-71
2022/11/18 03:58:30;;;;;;;10.30;7.50;;;8.10;99.90;;;;;;5004271;28;20489;-71
2022/11/18 04:01:03;;;;;;;10.45;7.75;;;8.10;99.90;;;;;;5008798;28;20037;-71
2022/11/18 04:03:29;;;;;;;8.48;7.20;;;8.10;99.90;;;;;;5008654;28;20033;-71
2022/11/18 04:06:12;;;;;;;9.77;7.32;;;8.20;99.90;;;;;;5017235;28;20478;-71
2022/11/18 04:08:42;;;;;;;9.55;7.15;;;8.10;99.90;;;;;;5002791;28;20029;-70
2022/11/18 04:12:01;;;;;;;8.30;6.65;;;8.10;99.90;;;;;;5011015;28;20045;-70
2022/11/18 04:14:03;;;;;;;10.10;6.90;;;8.10;99.90;;;;;;5011356;28;20041;-71
2022/11/18 04:16:28;;;;;;;9.15;6.50;;;8.10;99.90;;;;;;5012537;28;20041;-70
2022/11/18 04:18:54;;;;;;;8.93;6.60;;;8.00;99.90;;;;;;5012512;28;20392;-71
2022/11/18 04:21:20;;;;;;;10.10;6.80;;;8.00;99.90;;;;;;5009297;28;20721;-70
2022/11/18 04:23:45;;;;;;;12.80;7.43;;;8.00;99.90;;;;;;5016931;28;20518;-71
2022/11/18 04:26:11;;;;;;;9.15;7.22;;;8.00;99.90;;;;;;5014045;28;20715;-71
2022/11/18 04:28:36;;;;;;;12.18;8.20;;;8.00;99.90;;;;;;5005685;28;20133;-71
2022/11/18 04:31:02;;;;;;;10.93;8.02;;;7.90;99.90;;;;;;5011204;28;20056;-70
2022/11/18 04:33:28;;;;;;;10.30;7.63;;;7.90;99.90;;;;;;5007056;28;20087;-71
2022/11/18 04:35:53;;;;;;;9.65;7.38;;;7.90;99.90;;;;;;5009359;28;20561;-70
2022/11/18 04:38:19;;;;;;;11.43;7.90;;;7.90;99.90;;;;;;5005719;28;20038;-71
2022/11/18 04:40:45;;;;;;;13.45;8.93;;;7.90;99.90;;;;;;5014368;28;20040;-71
2022/11/18 04:43:11;;;;;;;9.32;7.05;;;7.90;99.90;;;;;;5010829;28;21020;-71
2022/11/18 04:45:36;;;;;;;9.55;7.32;;;7.90;99.90;;;;;;5016156;28;20036;-71
2022/11/18 04:48:02;;;;;;;9.45;7.25;;;7.90;99.90;;;;;;5012427;28;20044;-71
2022/11/18 04:50:28;;;;;;;12.25;7.75;;;7.90;99.90;;;;;;5018917;28;20045;-71
2022/11/18 04:52:53;;;;;;;10.25;7.72;;;7.90;99.90;;;;;;5008722;28;20131;-71
2022/11/18 04:55:19;;;;;;;11.20;7.38;;;7.90;99.90;;;;;;5014238;28;20025;-71
2022/11/18 04:57:45;;;;;;;10.90;7.82;;;7.90;99.90;;;;;;5018638;28;20030;-71
2022/11/18 05:00:11;;;;;;;12.60;8.40;;;7.90;99.90;;;;;;5006539;28;20057;-71
2022/11/18 05:02:36;;;;;;;12.60;8.70;;;7.90;99.90;;;;;;5011693;28;20029;-71
2022/11/18 05:05:02;;;;;;;11.23;8.38;;;7.90;99.90;;;;;;5016167;28;20581;-71
2022/11/18 05:07:28;;;;;;;10.88;7.50;;;7.90;99.90;;;;;;5009857;28;20038;-71
2022/11/18 05:09:53;;;;;;;12.07;7.95;;;7.90;99.90;;;;;;4994831;28;20083;-72
2022/11/18 05:15:04;;;;;;;10.57;7.95;;;7.90;99.90;;;;;;5004594;28;20736;-71
2022/11/18 05:17:29;;;;;;;11.27;8.02;;;7.90;99.90;;;;;;5013291;28;20028;-71
2022/11/18 05:19:55;;;;;;;11.00;8.05;;;8.00;99.90;;;;;;5013730;28;20689;-72
2022/11/18 05:22:20;;;;;;;13.48;7.85;;;8.00;99.90;;;;;;5018308;28;20163;-71
2022/11/18 05:24:46;;;;;;;10.77;6.95;;;8.00;99.90;;;;;;5008868;28;20042;-71
2022/11/18 05:27:12;;;;;;;12.15;7.93;;;8.00;99.90;;;;;;5007679;28;20033;-71
2022/11/18 05:29:38;;;;;;;11.73;7.95;;;8.10;99.90;;;;;;5011214;28;20025;-71
2022/11/18 05:32:04;;;;;;;13.80;8.95;;;8.10;99.90;;;;;;5013273;28;20068;-71
2022/11/18 05:34:29;;;;;;;12.93;8.93;;;8.10;99.90;;;;;;5018520;28;20051;-72
2022/11/18 05:36:55;;;;;;;11.98;8.43;;;8.20;99.90;;;;;;5012336;28;20034;-70
2022/11/18 05:39:21;;;;;;;12.05;7.85;;;8.20;99.90;;;;;;5013460;28;20481;-71
2022/11/18 05:44:30;;;;;;;11.07;8.07;;;8.20;99.90;;;;;;5001745;28;20041;-71
2022/11/18 05:46:56;;;;;;;10.77;7.32;;;8.20;99.90;;;;;;5003164;28;20038;-71
2022/11/18 05:49:22;;;;;;;10.20;6.95;;;8.20;99.90;;;;;;5008057;28;20053;-71
2022/11/18 05:51:47;;;;;;;12.77;7.78;;;8.20;99.90;;;;;;5010995;28;20025;-71
2022/11/18 05:54:16;;;;;;;13.27;7.75;;;8.20;99.90;;;;;;5011288;28;20450;-71
2022/11/18 05:56:46;;;;;;;10.85;7.65;;;;;;;;;;5005020;28;20084;-71
2022/11/18 05:59:12;;;;;;;15.23;8.27;;;;;;;;;;5009847;28;20021;-71
2022/11/18 06:01:41;;;;;;;12.00;8.45;;;;;;;;;;5021296;28;20037;-71
2022/11/18 06:04:14;;;;;;;9.05;7.32;;;;;;;;;;5004878;28;20037;-71
2022/11/18 06:06:40;;;;;;;;;;;;;;;;;;5008325;28;20116;-71
2022/11/18 06:09:08;;;;;;;7.97;6.45;;;;;;;;;;5010084;28;20609;-71
2022/11/18 06:11:38;;;;;;;11.93;7.80;;;;;;;;;;5014981;28;20025;-71
2022/11/18 06:14:09;;;;;;;10.43;7.80;;;;;;;;;;5008789;28;20042;-70
2022/11/18 06:16:37;;;;;;;14.50;8.95;;;;;;;;;;5004528;28;20033;-71
2022/11/18 06:19:03;;;;;;;11.88;8.77;;;;;;;;;;5010794;28;20079;-71
2022/11/18 06:21:29;;;;;;;14.05;8.18;;;;;;;;;;5008598;28;20665;-71
2022/11/18 06:23:56;;;;;;;10.68;8.43;;;;;;;;;;5004397;28;20029;-71
2022/11/18 06:26:21;;;;;;;11.70;8.27;;;8.40;99.90;;;;;;5005557;28;20060;-71
2022/11/18 06:28:48;;;;;;;8.98;7.43;;;8.40;99.90;;;;;;5013667;28;20025;-71
2022/11/18 06:31:15;;;;;;;9.70;7.40;;;8.30;99.90;;;;;;5010335;28;20702;-71
2022/11/18 06:33:41;;;;;;;10.20;8.07;;;8.20;99.90;;;;;;5007895;28;20120;-71
2022/11/18 06:36:07;;;;;;;12.18;9.48;;;8.20;99.90;;;;;;5005929;28;20030;-71
2022/11/18 06:38:33;;;;;;;13.50;9.98;;;8.20;99.90;;;;;;5016871;28;20025;-71
2022/11/18 06:41:00;;;;;;;14.93;10.40;;;8.30;99.90;;;;;;5007174;28;20076;-71
2022/11/18 06:43:38;;;;;;;10.77;9.07;;;8.30;99.90;;;;;;5003502;28;20029;-70
2022/11/18 06:48:49;;;;;;;12.77;9.18;;;8.30;99.90;;;;;;5018705;28;20111;-71
2022/11/18 06:51:15;;;;;;;10.55;8.30;;;8.20;99.90;;;;;;5013759;28;20053;-70
2022/11/18 06:53:40;;;;;;;11.55;8.90;;;8.10;99.90;;;;;;5005291;28;20533;-70
2022/11/18 06:56:09;;;;;;;11.32;9.20;;;8.10;99.90;;;;;;5003187;28;20029;-71
2022/11/18 06:58:35;;;;;;;12.38;9.40;;;8.10;99.90;;;;;;5013121;28;20030;-70
2022/11/18 07:01:11;;;;;;;10.55;8.55;;;8.10;99.90;;;;;;5008470;28;20061;-71
2022/11/18 07:03:37;;;;;;;13.40;9.18;;;8.20;99.90;;;;;;5010907;28;20033;-71
2022/11/18 07:06:03;;;;;;;11.27;8.60;;;8.20;99.90;;;;;;5016692;28;20032;-71
2022/11/18 07:08:28;;;;;;;9.90;8.40;;;8.20;99.90;;;;;;5011950;28;20029;-71
2022/11/18 07:10:54;;;;;;;12.02;9.70;;;8.20;99.90;;;;;;5005788;28;20021;-71
2022/11/18 07:13:20;;;;;;;11.95;9.82;;;;;;;;;;5006705;28;20082;-71
2022/11/18 07:15:46;;;;;;;13.95;10.43;;;8.30;99.90;;;;;;5005803;28;20060;-71
2022/11/18 07:18:11;;;;;;;11.90;9.80;;;8.30;99.90;;;;;;5006236;28;20121;-71
2022/11/18 07:20:37;;;;;;;13.75;10.25;;;8.40;99.90;;;;;;5008455;28;20441;-71
2022/11/18 07:23:03;;;;;;;12.98;10.15;;;;;;;;;;5008985;28;20084;-72
2022/11/18 07:25:28;;;;;;;12.60;9.82;;;8.40;99.90;;;;;;5016667;28;20064;-72
2022/11/18 07:27:54;;;;;;;13.80;9.55;;;8.40;99.90;;;;;;5012799;28;20319;-72
2022/11/18 07:30:20;;;;;;;11.80;9.40;;;8.40;99.90;;;;;;5005711;28;20041;-72
2022/11/18 07:32:46;;;;;;;12.70;9.82;;;8.40;99.90;;;;;;5015685;28;20033;-72
2022/11/18 07:35:12;;;;;;;13.98;10.57;;;8.40;99.90;;;;;;5005291;28;20083;-72
2022/11/18 07:37:38;;;;;;;13.68;9.98;;;8.40;99.90;;;;;;5008534;28;20025;-72
2022/11/18 07:40:04;;;;;;;14.82;10.35;;;8.50;99.90;;;;;;5005207;28;20025;-71
2022/11/18 07:42:41;;;;;;;13.07;9.73;;;8.50;99.90;;;;;;5002176;28;20498;-72
2022/11/18 07:45:11;;;;;;;13.82;9.93;;;8.40;99.90;;;;;;5005514;28;20289;-72
2022/11/18 07:47:37;;;;;;;16.30;10.98;;;8.50;99.90;;;;;;5005767;28;20029;-72
2022/11/18 07:50:04;;;;;;;19.75;12.70;;;8.50;99.90;;;;;;5006222;28;20041;-71
2022/11/18 07:52:30;;;;;;;20.13;12.43;;;8.50;99.90;;;;;;5006458;28;20022;-72
2022/11/18 07:54:56;;;;;;;17.73;12.30;;;8.60;99.90;;;;;;5004932;28;20389;-72
2022/11/18 07:57:21;;;;;;;15.70;11.57;;;8.60;99.90;;;;;;5015279;28;20025;-72
2022/11/18 07:59:47;;;;;;;17.38;12.13;;;8.60;99.90;;;;;;5012353;28;20037;-72
2022/11/18 08:02:13;;;;;;;17.02;11.13;;;8.60;99.90;;;;;;5008701;28;20029;-72
2022/11/18 08:04:38;;;;;;;17.58;11.45;;;8.60;99.90;;;;;;5003784;28;20033;-72
2022/11/18 08:07:04;;;;;;;20.60;11.95;;;8.60;99.90;;;;;;5011235;28;20047;-72
2022/11/18 08:09:30;;;;;;;23.00;12.32;;;8.60;99.90;;;;;;5010075;28;20036;-72
2022/11/18 08:11:56;;;;;;;18.40;12.30;;;8.70;99.90;;;;;;5003052;28;20390;-72
2022/11/18 08:14:23;;;;;;;25.60;15.00;;;8.70;99.90;;;;;;5008201;28;20030;-72
2022/11/18 08:16:49;;;;;;;21.30;14.95;;;8.70;99.90;;;;;;5000351;28;20029;-72
2022/11/18 08:19:15;;;;;;;23.13;15.27;;;8.70;99.90;;;;;;5010334;28;20077;-72
2022/11/18 08:21:40;;;;;;;23.00;14.57;;;8.70;99.90;;;;;;5006620;28;20272;-72
2022/11/18 08:24:08;;;;;;;22.10;14.80;;;8.70;99.90;;;;;;5001443;28;20100;-71
2022/11/18 08:26:33;;;;;;;24.08;16.38;;;8.70;99.90;;;;;;5012991;28;20073;-72
2022/11/18 08:28:59;;;;;;;27.17;17.00;;;8.70;99.90;;;;;;5005624;28;20081;-72
2022/11/18 08:31:27;;;;;;;28.13;16.02;;;8.80;99.90;;;;;;5010023;28;20064;-71
2022/11/18 08:34:01;;;;;;;27.45;16.00;;;8.80;99.90;;;;;;5006275;28;20026;-71
2022/11/18 08:36:29;;;;;;;27.95;15.45;;;8.90;99.90;;;;;;5004413;28;20022;-71
2022/11/18 08:38:56;;;;;;;27.83;17.17;;;8.90;99.90;;;;;;5004529;28;20563;-72
2022/11/18 08:41:42;;;;;;;27.17;15.70;;;8.90;99.90;;;;;;5018381;28;20072;-71
2022/11/18 08:44:11;;;;;;;25.13;14.98;;;8.90;99.90;;;;;;5002322;28;20022;-71
2022/11/18 08:46:37;;;;;;;26.55;14.73;;;8.90;99.90;;;;;;5008508;28;20034;-71
2022/11/18 08:49:03;;;;;;;23.00;14.98;;;8.90;99.90;;;;;;5001776;28;20382;-71
2022/11/18 08:51:29;;;;;;;22.10;15.05;;;8.90;99.90;;;;;;5006937;28;20026;-71
2022/11/18 08:53:55;;;;;;;25.92;14.80;;;8.90;99.90;;;;;;5001436;28;20026;-72
2022/11/18 08:56:22;;;;;;;26.50;14.85;;;8.90;99.90;;;;;;5009876;28;20100;-71
2022/11/18 08:58:47;;;;;;;23.90;14.70;;;9.00;99.90;;;;;;4999501;28;20770;-71
2022/11/18 09:01:13;;;;;;;21.30;14.52;;;9.00;99.90;;;;;;5003308;28;20113;-71
2022/11/18 09:03:39;;;;;;;26.23;14.93;;;9.10;99.90;;;;;;4996680;28;20054;-71
2022/11/18 09:06:11;;;;;;;24.52;14.38;;;9.20;99.90;;;;;;5003879;28;20030;-72
2022/11/18 09:08:38;;;;;;;22.95;14.68;;;9.20;99.90;;;;;;5010644;28;20463;-71
2022/11/18 09:11:11;;;;;;;26.13;15.38;;;9.30;99.90;;;;;;4999605;28;20033;-71
2022/11/18 09:13:37;;;;;;;24.50;14.95;;;9.40;99.90;;;;;;5010252;28;20543;-71
2022/11/18 09:16:04;;;;;;;28.10;16.23;;;9.60;99.90;;;;;;5001235;28;20377;-71
2022/11/18 09:18:31;;;;;;;24.65;15.93;;;9.50;99.90;;;;;;5016459;28;20620;-71
2022/11/18 09:21:06;;;;;;;25.38;14.80;;;9.50;99.90;;;;;;5001074;28;20474;-70
2022/11/18 09:23:34;;;;;;;23.23;14.55;;;9.60;99.90;;;;;;5008782;28;20481;-71
2022/11/18 09:26:05;;;;;;;26.88;15.02;;;9.40;99.90;;;;;;5006196;28;20057;-71
2022/11/18 09:28:31;;;;;;;24.58;14.95;;;9.40;99.90;;;;;;5021078;28;20481;-71
2022/11/18 09:30:57;;;;;;;21.23;14.00;;;9.40;99.90;;;;;;5014029;28;20057;-70
2022/11/18 09:33:23;;;;;;;22.27;14.73;;;9.40;99.90;;;;;;5007282;28;20022;-70
2022/11/18 09:35:49;;;;;;;23.40;14.20;;;9.30;99.90;;;;;;5017511;28;20317;-71
2022/11/18 09:38:15;;;;;;;30.23;16.95;;;9.30;99.90;;;;;;5018162;28;20056;-71
2022/11/18 09:40:53;;;;;;;27.63;16.88;;;9.30;99.90;;;;;;5006609;28;20402;-71
2022/11/18 09:43:30;;;;;;;26.63;17.52;;;9.30;99.90;;;;;;5012928;28;20500;-71
2022/11/18 09:46:02;;;;;;;30.23;18.88;;;9.20;99.90;;;;;;5002879;28;20394;-71
2022/11/18 09:51:13;;;;;;;26.02;16.55;;;9.20;99.90;;;;;;5000754;28;20084;-71
2022/11/18 09:53:42;;;;;;;23.52;15.73;;;9.20;99.90;;;;;;5007254;28;20049;-71
2022/11/18 09:56:14;;;;;;;25.30;14.65;;;9.20;99.90;;;;;;5009783;28;20026;-71
2022/11/18 09:58:41;;;;;;;23.42;13.88;;;9.20;99.90;;;;;;5005947;28;20151;-71
2022/11/18 10:01:13;;;;;;;20.77;13.30;;;9.20;99.90;;;;;;5009112;28;20159;-71
2022/11/18 10:03:40;;;;;;;22.67;13.70;;;9.20;99.90;;;;;;5017675;28;20025;-71
2022/11/18 10:06:09;;;;;;;23.88;15.13;;;9.20;99.90;;;;;;5010797;28;20038;-71
2022/11/18 10:09:28;;;;;;;23.45;13.35;;;9.20;99.90;;;;;;5013213;28;20030;-72
2022/11/18 10:12:34;;;;;;;18.67;11.70;;;9.20;99.90;;;;;;5015829;28;20559;-71
2022/11/18 10:15:13;;;;;;;30.45;15.95;;;9.20;99.90;;;;;;5010268;28;20112;-71
2022/11/18 10:17:58;;;;;;;30.77;16.15;;;9.20;99.90;;;;;;5004932;28;20159;-71
2022/11/18 10:20:52;;;;;;;26.65;14.40;;;9.20;99.90;;;;;;5001816;28;20053;-71
2022/11/18 10:23:25;;;;;;;20.20;12.63;;;9.20;99.90;;;;;;5004012;28;20033;-71
2022/11/18 10:25:53;;;;;;;24.35;15.07;;;9.20;99.90;;;;;;5005421;28;20127;-71
2022/11/18 10:28:28;;;;;;;25.48;16.52;;;9.20;99.90;;;;;;5005165;28;20132;-71
2022/11/18 10:31:01;;;;;;;27.27;16.55;;;9.20;99.90;;;;;;5007485;28;20282;-71
2022/11/18 10:33:28;;;;;;;26.13;17.20;;;9.20;99.90;;;;;;5003860;28;20583;-71
2022/11/18 10:36:22;;;;;;;27.05;17.98;;;9.20;99.90;;;;;;5003906;28;20022;-71
2022/11/18 10:39:03;;;;;;;26.95;17.92;;;9.30;99.90;;;;;;5000354;28;20125;-71
2022/11/18 10:41:34;;;;;;;32.25;19.23;;;9.20;99.90;;;;;;5010691;28;20037;-71
2022/11/18 10:44:00;;;;;;;30.63;19.20;;;9.20;99.90;;;;;;5006631;28;20355;-71
2022/11/18 10:46:34;;;;;;;33.75;20.33;;;9.20;99.90;;;;;;5010571;28;20088;-72
2022/11/18 10:49:15;;;;;;;30.52;19.42;;;9.20;99.90;;;;;;5010980;28;20505;-71
2022/11/18 10:51:44;;;;;;;34.05;20.35;;;9.20;99.90;;;;;;5013912;28;20564;-71
2022/11/18 10:54:21;;;;;;;36.53;21.48;;;9.20;99.90;;;;;;5014025;28;20030;-71
2022/11/18 10:56:54;;;;;;;35.30;21.17;;;9.20;99.90;;;;;;5019250;28;20095;-71
2022/11/18 10:59:22;;;;;;;;;;;9.20;99.90;;;;;;5016054;28;20049;-72
2022/11/18 11:02:00;;;;;;;39.20;21.90;;;9.20;99.90;;;;;;5006110;28;19917;-72
2022/11/18 11:04:27;;;;;;;37.97;21.58;;;9.20;99.90;;;;;;5009570;28;20029;-72
2022/11/18 11:06:52;;;;;;;33.10;21.02;;;9.20;99.90;;;;;;5007717;28;20513;-72
2022/11/18 11:09:21;;;;;;;34.35;20.80;;;9.20;99.90;;;;;;5003828;28;20048;-72
2022/11/18 11:12:02;;;;;;;33.97;21.00;;;9.20;99.90;;;;;;5001888;28;20097;-72
2022/11/18 11:14:34;;;;;;;35.83;21.08;;;;;;;;;;5013724;28;20040;-70
2022/11/18 11:17:26;;;;;;;35.72;21.20;;;9.20;99.90;;;;;;5001613;28;20045;-69
2022/11/18 11:19:52;;;;;;;36.28;21.55;;;;;;;;;;5002906;28;20053;-69
2022/11/18 11:22:18;;;;;;;34.23;21.43;;;9.40;99.90;;;;;;4312769;28;10022069;-69
2022/11/18 11:24:45;;;;;;;33.90;21.08;;;9.40;99.90;;;;;;4999743;28;20031;-69
2022/11/18 11:27:24;;;;;;;32.85;20.67;;;9.40;99.90;;;;;;5001587;28;20030;-69
2022/11/18 11:29:52;;;;;;;37.58;21.92;;;9.40;99.90;;;;;;5002457;28;20090;-69
2022/11/18 11:32:37;;;;;;;35.13;21.70;;;9.40;99.90;;;;;;4998386;28;20034;-69
2022/11/18 11:35:08;;;;;;;35.45;20.65;;;9.50;99.90;;;;;;5006810;28;20036;-69
2022/11/18 11:38:15;;;;;;;34.53;20.88;;;9.50;99.90;;;;;;5019948;28;20026;-69
2022/11/18 11:41:02;;;;;;;33.45;20.58;;;9.50;99.90;;;;;;5017332;28;20069;-69
2022/11/18 11:43:51;;;;;;;34.80;21.13;;;9.60;99.90;;;;;;5006244;28;20040;-69
2022/11/18 11:46:27;;;;;;;32.63;20.00;;;9.60;99.90;;;;;;5007712;28;20427;-69
2022/11/18 11:49:14;;;;;;;31.95;20.10;;;9.60;99.90;;;;;;5002576;28;20038;-69
2022/11/18 11:51:53;;;;;;;31.70;20.50;;;9.60;99.90;;;;;;5014373;28;20353;-69
2022/11/18 11:54:42;;;;;;;30.50;19.80;;;9.50;99.90;;;;;;5006239;28;20025;-69
2022/11/18 11:57:39;;;;;;;29.92;18.92;;;9.60;99.90;;;;;;5008150;28;20569;-69
2022/11/18 12:00:15;;;;;;;31.05;20.00;;;9.60;99.90;;;;;;5009400;28;20476;-69
2022/11/18 12:03:02;;;;;;;30.17;19.55;;;9.60;99.90;;;;;;5003432;28;20033;-69
2022/11/18 12:05:33;;;;;;;33.15;20.15;;;9.70;99.90;;;;;;5005523;28;22149;-69
2022/11/18 12:08:05;;;;;;;31.88;19.50;;;9.70;99.90;;;;;;5010190;28;20075;-69
2022/11/18 12:10:55;;;;;;;29.83;18.35;;;9.70;99.90;;;;;;5008863;28;20108;-69
2022/11/18 12:13:36;;;;;;;29.27;18.85;;;9.70;99.90;;;;;;5007818;28;20124;-69
2022/11/18 12:16:26;;;;;;;28.60;18.83;;;9.80;99.90;;;;;;5005242;28;20553;-69
2022/11/18 12:19:16;;;;;;;29.58;17.83;;;9.80;99.90;;;;;;5000892;28;20438;-69
2022/11/18 12:21:43;;;;;;;28.63;18.15;;;;;;;;;;5000827;28;20100;-69
2022/11/18 12:24:30;;;;;;;28.67;17.88;;;9.80;99.90;;;;;;5004595;28;20658;-70
2022/11/18 12:27:16;;;;;;;31.25;19.75;;;9.70;99.90;;;;;;5002513;28;20025;-69
2022/11/18 12:30:02;;;;;;;28.25;18.40;;;9.70;99.90;;;;;;5007389;28;20109;-70
2022/11/18 12:32:35;;;;;;;29.80;18.42;;;9.70;99.90;;;;;;5006374;28;20040;-69
2022/11/18 12:35:22;;;;;;;27.58;17.92;;;9.50;99.90;;;;;;5003223;28;20026;-69
2022/11/18 12:37:51;;;;;;;26.67;16.50;;;9.50;99.90;;;;;;5004477;28;20696;-69
2022/11/18 12:40:43;;;;;;;25.83;16.08;;;9.50;99.90;;;;;;5008696;28;20040;-70
2022/11/18 12:46:29;;;;;;;26.38;16.15;;;9.40;99.90;;;;;;5014086;28;20045;-69
2022/11/18 12:48:55;;;;;;;26.20;15.90;;;9.40;99.90;;;;;;5018128;28;20145;-69
2022/11/18 12:51:23;;;;;;;23.98;15.43;;;9.30;99.90;;;;;;4999075;28;20040;-69
2022/11/18 12:53:50;;;;;;;22.90;15.63;;;9.30;99.90;;;;;;5007379;28;20037;-69
2022/11/18 12:56:18;;;;;;;22.98;14.65;;;;;;;;;;5002782;28;20033;-69
2022/11/18 12:58:50;;;;;;;24.73;15.57;;;9.30;99.90;;;;;;5002345;28;20079;-69
2022/11/18 13:01:21;;;;;;;25.20;15.65;;;9.30;99.90;;;;;;5003403;28;20389;-69
2022/11/18 13:03:47;;;;;;;26.90;15.85;;;9.30;99.90;;;;;;5008056;28;20044;-69
2022/11/18 13:06:22;;;;;;;23.50;15.82;;;9.20;99.90;;;;;;5007899;28;20025;-70
2022/11/18 13:08:54;;;;;;;24.85;15.70;;;9.20;99.90;;;;;;5005871;28;20048;-70
2022/11/18 13:19:41;;;;;;;23.75;14.73;;;;;;;;;;5009317;28;20061;-70
2022/11/18 13:25:01;;;;;;;26.00;15.80;;;9.10;99.90;;;;;;5002140;28;20076;-70
2022/11/18 13:27:40;;;;;;;25.52;16.35;;;9.00;99.90;;;;;;5015824;28;20519;-70
2022/11/18 13:30:12;;;;;;;26.80;17.10;;;9.00;99.90;;;;;;5003104;28;20078;-70
2022/11/18 13:32:43;;;;;;;33.88;18.20;;;9.00;99.90;;;;;;5000737;28;20029;-70
2022/11/18 13:35:17;;;;;;;35.97;19.40;;;8.90;99.90;;;;;;5003411;28;20345;-71
2022/11/18 13:37:49;;;;;;;28.48;16.90;;;8.90;99.90;;;;;;5008642;28;20045;-70